sensor_id;sensor_type;location;lat;lon;timestamp;P1;durP1;ratioP1;P2;durP2;ratioP2
5801;SDS011;2927;49.366;8.530;2023-06-19T00:01:43;16.37;;;12.30;;
5801;SDS011;2927;49.366;8.530;2023-06-19T00:04:10;16.90;;;13.90;;
5801;SDS011;2927;49.366;8.530;2023-06-19T00:06:35;16.07;;;13.37;;
5801;SDS011;2927;49.366;8.530;2023-06-19T00:09:01;19.30;;;14.03;;
5801;SDS011;2927;49.366;8.530;2023-06-19T00:11:27;19.70;;;14.57;;
5801;SDS011;2927;49.366;8.530;2023-06-19T00:13:53;15.37;;;12.17;;
5801;SDS011;2927;49.366;8.530;2023-06-19T00:16:19;20.47;;;12.00;;
5801;SDS011;2927;49.366;8.530;2023-06-19T00:18:45;16.53;;;12.00;;
5801;SDS011;2927;49.366;8.530;2023-06-19T00:21:11;18.77;;;11.37;;
5801;SDS011;2927;49.366;8.530;2023-06-19T00:23:36;15.47;;;11.03;;
5801;SDS011;2927;49.366;8.530;2023-06-19T00:26:02;24.63;;;12.03;;
5801;SDS011;2927;49.366;8.530;2023-06-19T00:28:28;14.23;;;12.00;;
5801;SDS011;2927;49.366;8.530;2023-06-19T00:30:54;19.37;;;12.50;;
5801;SDS011;2927;49.366;8.530;2023-06-19T00:33:19;15.40;;;11.60;;
5801;SDS011;2927;49.366;8.530;2023-06-19T00:35:45;17.50;;;11.20;;
5801;SDS011;2927;49.366;8.530;2023-06-19T00:38:10;15.90;;;12.30;;
5801;SDS011;2927;49.366;8.530;2023-06-19T00:40:37;18.13;;;12.57;;
5801;SDS011;2927;49.366;8.530;2023-06-19T00:43:03;18.20;;;12.70;;
5801;SDS011;2927;49.366;8.530;2023-06-19T00:45:29;20.13;;;12.40;;
5801;SDS011;2927;49.366;8.530;2023-06-19T00:47:55;16.90;;;11.07;;
5801;SDS011;2927;49.366;8.530;2023-06-19T00:50:22;17.20;;;10.93;;
5801;SDS011;2927;49.366;8.530;2023-06-19T00:52:48;24.53;;;11.73;;
5801;SDS011;2927;49.366;8.530;2023-06-19T00:55:14;14.10;;;10.47;;
5801;SDS011;2927;49.366;8.530;2023-06-19T00:57:41;19.43;;;11.23;;
5801;SDS011;2927;49.366;8.530;2023-06-19T01:00:07;17.73;;;11.87;;
5801;SDS011;2927;49.366;8.530;2023-06-19T01:02:37;19.37;;;11.60;;
5801;SDS011;2927;49.366;8.530;2023-06-19T01:05:04;14.73;;;10.90;;
5801;SDS011;2927;49.366;8.530;2023-06-19T01:07:39;14.03;;;10.93;;
5801;SDS011;2927;49.366;8.530;2023-06-19T01:10:24;18.77;;;10.13;;
5801;SDS011;2927;49.366;8.530;2023-06-19T01:12:59;15.40;;;10.57;;
5801;SDS011;2927;49.366;8.530;2023-06-19T01:15:27;15.80;;;9.40;;
5801;SDS011;2927;49.366;8.530;2023-06-19T01:17:54;10.33;;;9.20;;
5801;SDS011;2927;49.366;8.530;2023-06-19T01:20:22;11.57;;;9.80;;
5801;SDS011;2927;49.366;8.530;2023-06-19T01:22:48;21.13;;;9.40;;
5801;SDS011;2927;49.366;8.530;2023-06-19T01:25:14;10.20;;;8.40;;
5801;SDS011;2927;49.366;8.530;2023-06-19T01:27:40;9.50;;;8.50;;
5801;SDS011;2927;49.366;8.530;2023-06-19T01:30:10;9.97;;;9.00;;
5801;SDS011;2927;49.366;8.530;2023-06-19T01:32:58;10.40;;;7.80;;
5801;SDS011;2927;49.366;8.530;2023-06-19T01:35:31;11.73;;;8.10;;
5801;SDS011;2927;49.366;8.530;2023-06-19T01:37:59;8.27;;;7.57;;
5801;SDS011;2927;49.366;8.530;2023-06-19T01:40:26;9.27;;;7.00;;
5801;SDS011;2927;49.366;8.530;2023-06-19T01:42:56;11.03;;;7.90;;
5801;SDS011;2927;49.366;8.530;2023-06-19T01:45:24;7.90;;;7.20;;
5801;SDS011;2927;49.366;8.530;2023-06-19T01:47:50;10.63;;;6.77;;
5801;SDS011;2927;49.366;8.530;2023-06-19T01:50:16;12.53;;;6.77;;
5801;SDS011;2927;49.366;8.530;2023-06-19T01:52:41;9.10;;;7.20;;
5801;SDS011;2927;49.366;8.530;2023-06-19T01:55:07;7.70;;;6.40;;
5801;SDS011;2927;49.366;8.530;2023-06-19T01:57:34;18.07;;;7.13;;
5801;SDS011;2927;49.366;8.530;2023-06-19T02:00:01;10.50;;;7.93;;
5801;SDS011;2927;49.366;8.530;2023-06-19T02:02:27;12.03;;;7.50;;
5801;SDS011;2927;49.366;8.530;2023-06-19T02:04:52;10.43;;;6.40;;
5801;SDS011;2927;49.366;8.530;2023-06-19T02:07:18;9.97;;;6.40;;
5801;SDS011;2927;49.366;8.530;2023-06-19T02:09:43;15.93;;;7.50;;
5801;SDS011;2927;49.366;8.530;2023-06-19T02:12:09;9.27;;;6.73;;
5801;SDS011;2927;49.366;8.530;2023-06-19T02:14:34;8.63;;;6.00;;
5801;SDS011;2927;49.366;8.530;2023-06-19T02:17:00;17.40;;;6.73;;
5801;SDS011;2927;49.366;8.530;2023-06-19T02:19:25;9.43;;;6.30;;
5801;SDS011;2927;49.366;8.530;2023-06-19T02:21:51;6.33;;;5.37;;
5801;SDS011;2927;49.366;8.530;2023-06-19T02:24:16;5.70;;;5.20;;
5801;SDS011;2927;49.366;8.530;2023-06-19T02:26:42;6.93;;;4.63;;
5801;SDS011;2927;49.366;8.530;2023-06-19T02:29:09;11.00;;;5.33;;
5801;SDS011;2927;49.366;8.530;2023-06-19T02:31:34;5.67;;;5.10;;
5801;SDS011;2927;49.366;8.530;2023-06-19T02:34:00;7.13;;;5.23;;
5801;SDS011;2927;49.366;8.530;2023-06-19T02:36:26;6.13;;;5.30;;
5801;SDS011;2927;49.366;8.530;2023-06-19T02:38:51;6.97;;;5.73;;
5801;SDS011;2927;49.366;8.530;2023-06-19T02:41:17;7.50;;;6.70;;
5801;SDS011;2927;49.366;8.530;2023-06-19T02:43:44;11.33;;;6.70;;
5801;SDS011;2927;49.366;8.530;2023-06-19T02:46:11;6.47;;;5.87;;
5801;SDS011;2927;49.366;8.530;2023-06-19T02:48:37;6.33;;;5.30;;
5801;SDS011;2927;49.366;8.530;2023-06-19T02:51:02;6.67;;;5.43;;
5801;SDS011;2927;49.366;8.530;2023-06-19T02:53:28;5.50;;;5.10;;
5801;SDS011;2927;49.366;8.530;2023-06-19T02:55:54;9.90;;;4.77;;
5801;SDS011;2927;49.366;8.530;2023-06-19T02:58:19;3.93;;;3.53;;
5801;SDS011;2927;49.366;8.530;2023-06-19T03:00:45;4.20;;;3.73;;
5801;SDS011;2927;49.366;8.530;2023-06-19T03:03:11;4.40;;;3.40;;
5801;SDS011;2927;49.366;8.530;2023-06-19T03:05:37;4.10;;;3.70;;
5801;SDS011;2927;49.366;8.530;2023-06-19T03:08:03;5.23;;;3.27;;
5801;SDS011;2927;49.366;8.530;2023-06-19T03:10:29;3.07;;;2.80;;
5801;SDS011;2927;49.366;8.530;2023-06-19T03:12:54;3.80;;;3.00;;
5801;SDS011;2927;49.366;8.530;2023-06-19T03:15:20;4.30;;;4.00;;
5801;SDS011;2927;49.366;8.530;2023-06-19T03:17:46;3.43;;;3.10;;
5801;SDS011;2927;49.366;8.530;2023-06-19T03:20:12;4.00;;;3.70;;
5801;SDS011;2927;49.366;8.530;2023-06-19T03:22:39;5.97;;;3.23;;
5801;SDS011;2927;49.366;8.530;2023-06-19T03:25:05;3.30;;;3.00;;
5801;SDS011;2927;49.366;8.530;2023-06-19T03:27:31;3.43;;;2.53;;
5801;SDS011;2927;49.366;8.530;2023-06-19T03:29:57;5.27;;;3.63;;
5801;SDS011;2927;49.366;8.530;2023-06-19T03:32:22;3.37;;;3.17;;
5801;SDS011;2927;49.366;8.530;2023-06-19T03:34:48;3.30;;;3.10;;
5801;SDS011;2927;49.366;8.530;2023-06-19T03:37:13;3.73;;;3.37;;
5801;SDS011;2927;49.366;8.530;2023-06-19T03:39:39;3.27;;;3.07;;
5801;SDS011;2927;49.366;8.530;2023-06-19T03:42:05;3.70;;;3.40;;
5801;SDS011;2927;49.366;8.530;2023-06-19T03:44:31;3.60;;;3.30;;
5801;SDS011;2927;49.366;8.530;2023-06-19T03:46:56;3.33;;;3.03;;
5801;SDS011;2927;49.366;8.530;2023-06-19T03:49:22;3.93;;;3.53;;
5801;SDS011;2927;49.366;8.530;2023-06-19T03:51:47;5.70;;;4.37;;
5801;SDS011;2927;49.366;8.530;2023-06-19T03:54:13;4.40;;;3.57;;
5801;SDS011;2927;49.366;8.530;2023-06-19T03:56:39;7.50;;;3.70;;
5801;SDS011;2927;49.366;8.530;2023-06-19T03:59:04;5.57;;;3.93;;
5801;SDS011;2927;49.366;8.530;2023-06-19T04:01:30;4.17;;;3.87;;
5801;SDS011;2927;49.366;8.530;2023-06-19T04:03:55;3.70;;;3.40;;
5801;SDS011;2927;49.366;8.530;2023-06-19T04:06:21;6.83;;;3.67;;
5801;SDS011;2927;49.366;8.530;2023-06-19T04:08:46;5.57;;;4.17;;
5801;SDS011;2927;49.366;8.530;2023-06-19T04:11:12;3.50;;;3.30;;
5801;SDS011;2927;49.366;8.530;2023-06-19T04:13:37;7.47;;;4.77;;
5801;SDS011;2927;49.366;8.530;2023-06-19T04:16:03;4.53;;;4.07;;
5801;SDS011;2927;49.366;8.530;2023-06-19T04:18:28;8.33;;;3.80;;
5801;SDS011;2927;49.366;8.530;2023-06-19T04:20:55;6.23;;;4.20;;
5801;SDS011;2927;49.366;8.530;2023-06-19T04:23:21;5.57;;;4.07;;
5801;SDS011;2927;49.366;8.530;2023-06-19T04:25:46;7.83;;;4.43;;
5801;SDS011;2927;49.366;8.530;2023-06-19T04:28:12;6.17;;;4.13;;
5801;SDS011;2927;49.366;8.530;2023-06-19T04:30:38;4.40;;;4.03;;
5801;SDS011;2927;49.366;8.530;2023-06-19T04:33:06;8.07;;;4.60;;
5801;SDS011;2927;49.366;8.530;2023-06-19T04:35:33;6.20;;;4.30;;
5801;SDS011;2927;49.366;8.530;2023-06-19T04:38:04;4.03;;;3.53;;
5801;SDS011;2927;49.366;8.530;2023-06-19T04:40:30;8.80;;;4.10;;
5801;SDS011;2927;49.366;8.530;2023-06-19T04:42:57;6.10;;;3.90;;
5801;SDS011;2927;49.366;8.530;2023-06-19T04:45:22;5.27;;;4.17;;
5801;SDS011;2927;49.366;8.530;2023-06-19T04:47:48;3.73;;;3.47;;
5801;SDS011;2927;49.366;8.530;2023-06-19T04:50:13;3.90;;;3.60;;
5801;SDS011;2927;49.366;8.530;2023-06-19T04:52:41;3.93;;;3.43;;
5801;SDS011;2927;49.366;8.530;2023-06-19T04:55:07;3.90;;;3.50;;
5801;SDS011;2927;49.366;8.530;2023-06-19T04:57:36;4.57;;;3.67;;
5801;SDS011;2927;49.366;8.530;2023-06-19T05:00:06;6.50;;;3.03;;
5801;SDS011;2927;49.366;8.530;2023-06-19T05:02:34;3.93;;;3.17;;
5801;SDS011;2927;49.366;8.530;2023-06-19T05:05:00;4.83;;;3.33;;
5801;SDS011;2927;49.366;8.530;2023-06-19T05:07:31;3.93;;;3.63;;
5801;SDS011;2927;49.366;8.530;2023-06-19T05:09:57;4.93;;;3.20;;
5801;SDS011;2927;49.366;8.530;2023-06-19T05:12:23;5.23;;;3.23;;
5801;SDS011;2927;49.366;8.530;2023-06-19T05:14:49;3.30;;;3.00;;
5801;SDS011;2927;49.366;8.530;2023-06-19T05:17:15;3.40;;;3.13;;
5801;SDS011;2927;49.366;8.530;2023-06-19T05:19:40;3.77;;;3.40;;
5801;SDS011;2927;49.366;8.530;2023-06-19T05:22:06;5.93;;;3.50;;
5801;SDS011;2927;49.366;8.530;2023-06-19T05:24:31;11.57;;;3.00;;
5801;SDS011;2927;49.366;8.530;2023-06-19T05:26:57;3.50;;;3.30;;
5801;SDS011;2927;49.366;8.530;2023-06-19T05:29:23;3.30;;;3.00;;
5801;SDS011;2927;49.366;8.530;2023-06-19T05:31:48;2.93;;;2.73;;
5801;SDS011;2927;49.366;8.530;2023-06-19T05:34:14;3.47;;;3.17;;
5801;SDS011;2927;49.366;8.530;2023-06-19T05:36:39;3.10;;;2.90;;
5801;SDS011;2927;49.366;8.530;2023-06-19T05:39:13;3.60;;;3.30;;
5801;SDS011;2927;49.366;8.530;2023-06-19T05:41:39;4.60;;;3.63;;
5801;SDS011;2927;49.366;8.530;2023-06-19T05:44:04;3.57;;;3.27;;
5801;SDS011;2927;49.366;8.530;2023-06-19T05:46:30;3.33;;;2.73;;
5801;SDS011;2927;49.366;8.530;2023-06-19T05:48:55;2.90;;;2.70;;
5801;SDS011;2927;49.366;8.530;2023-06-19T05:51:21;4.40;;;3.50;;
5801;SDS011;2927;49.366;8.530;2023-06-19T05:53:46;3.53;;;3.20;;
5801;SDS011;2927;49.366;8.530;2023-06-19T05:56:14;2.97;;;2.67;;
5801;SDS011;2927;49.366;8.530;2023-06-19T05:58:40;5.97;;;2.70;;
5801;SDS011;2927;49.366;8.530;2023-06-19T06:01:06;3.80;;;3.10;;
5801;SDS011;2927;49.366;8.530;2023-06-19T06:03:33;3.27;;;3.00;;
5801;SDS011;2927;49.366;8.530;2023-06-19T06:05:58;4.77;;;3.50;;
5801;SDS011;2927;49.366;8.530;2023-06-19T06:08:28;5.77;;;2.80;;
5801;SDS011;2927;49.366;8.530;2023-06-19T06:10:54;3.37;;;3.17;;
5801;SDS011;2927;49.366;8.530;2023-06-19T06:13:20;10.73;;;2.80;;
5801;SDS011;2927;49.366;8.530;2023-06-19T06:15:45;3.10;;;2.90;;
5801;SDS011;2927;49.366;8.530;2023-06-19T06:18:11;4.03;;;3.73;;
5801;SDS011;2927;49.366;8.530;2023-06-19T06:20:36;2.87;;;2.67;;
5801;SDS011;2927;49.366;8.530;2023-06-19T06:23:02;3.97;;;3.77;;
5801;SDS011;2927;49.366;8.530;2023-06-19T06:25:28;3.20;;;3.00;;
5801;SDS011;2927;49.366;8.530;2023-06-19T06:27:53;3.20;;;3.00;;
5801;SDS011;2927;49.366;8.530;2023-06-19T06:30:19;3.63;;;3.33;;
5801;SDS011;2927;49.366;8.530;2023-06-19T06:32:45;4.90;;;3.47;;
5801;SDS011;2927;49.366;8.530;2023-06-19T06:35:10;3.60;;;3.20;;
5801;SDS011;2927;49.366;8.530;2023-06-19T06:37:36;5.63;;;2.80;;
5801;SDS011;2927;49.366;8.530;2023-06-19T06:40:02;3.40;;;3.13;;
5801;SDS011;2927;49.366;8.530;2023-06-19T06:42:30;3.75;;;3.55;;
5801;SDS011;2927;49.366;8.530;2023-06-19T06:44:55;6.07;;;3.63;;
5801;SDS011;2927;49.366;8.530;2023-06-19T06:47:21;4.03;;;3.13;;
5801;SDS011;2927;49.366;8.530;2023-06-19T06:49:46;3.55;;;3.28;;
5801;SDS011;2927;49.366;8.530;2023-06-19T06:52:12;3.38;;;3.17;;
5801;SDS011;2927;49.366;8.530;2023-06-19T06:54:38;3.55;;;3.25;;
5801;SDS011;2927;49.366;8.530;2023-06-19T06:57:03;4.30;;;3.63;;
5801;SDS011;2927;49.366;8.530;2023-06-19T06:59:30;3.53;;;3.33;;
5801;SDS011;2927;49.366;8.530;2023-06-19T07:01:55;3.28;;;3.05;;
5801;SDS011;2927;49.366;8.530;2023-06-19T07:04:21;5.68;;;3.00;;
5801;SDS011;2927;49.366;8.530;2023-06-19T07:06:47;4.20;;;3.25;;
5801;SDS011;2927;49.366;8.530;2023-06-19T07:09:13;4.10;;;3.80;;
5801;SDS011;2927;49.366;8.530;2023-06-19T07:11:40;5.63;;;3.33;;
5801;SDS011;2927;49.366;8.530;2023-06-19T07:14:05;8.18;;;4.20;;
5801;SDS011;2927;49.366;8.530;2023-06-19T07:16:31;6.20;;;3.28;;
5801;SDS011;2927;49.366;8.530;2023-06-19T07:18:56;4.18;;;3.83;;
5801;SDS011;2927;49.366;8.530;2023-06-19T07:21:22;3.13;;;2.97;;
5801;SDS011;2927;49.366;8.530;2023-06-19T07:23:48;4.22;;;3.92;;
5801;SDS011;2927;49.366;8.530;2023-06-19T07:26:14;4.30;;;3.88;;
5801;SDS011;2927;49.366;8.530;2023-06-19T07:28:40;5.65;;;3.40;;
5801;SDS011;2927;49.366;8.530;2023-06-19T07:31:06;5.07;;;4.78;;
5801;SDS011;2927;49.366;8.530;2023-06-19T07:33:32;4.55;;;4.15;;
5801;SDS011;2927;49.366;8.530;2023-06-19T07:35:57;6.70;;;4.65;;
5801;SDS011;2927;49.366;8.530;2023-06-19T07:38:23;6.95;;;5.07;;
5801;SDS011;2927;49.366;8.530;2023-06-19T07:40:49;4.78;;;4.47;;
5801;SDS011;2927;49.366;8.530;2023-06-19T07:43:14;5.13;;;4.73;;
5801;SDS011;2927;49.366;8.530;2023-06-19T07:45:40;4.80;;;4.38;;
5801;SDS011;2927;49.366;8.530;2023-06-19T07:48:06;5.27;;;4.60;;
5801;SDS011;2927;49.366;8.530;2023-06-19T07:50:31;4.90;;;4.40;;
5801;SDS011;2927;49.366;8.530;2023-06-19T07:52:57;6.17;;;5.50;;
5801;SDS011;2927;49.366;8.530;2023-06-19T07:55:23;7.20;;;5.03;;
5801;SDS011;2927;49.366;8.530;2023-06-19T07:57:48;5.37;;;4.87;;
5801;SDS011;2927;49.366;8.530;2023-06-19T08:00:14;8.40;;;4.93;;
5801;SDS011;2927;49.366;8.530;2023-06-19T08:02:40;4.60;;;4.20;;
5801;SDS011;2927;49.366;8.530;2023-06-19T08:05:06;7.43;;;5.40;;
5801;SDS011;2927;49.366;8.530;2023-06-19T08:07:33;5.60;;;5.10;;
5801;SDS011;2927;49.366;8.530;2023-06-19T08:09:59;5.27;;;4.57;;
5801;SDS011;2927;49.366;8.530;2023-06-19T08:12:25;6.20;;;5.30;;
5801;SDS011;2927;49.366;8.530;2023-06-19T08:14:51;7.83;;;4.67;;
5801;SDS011;2927;49.366;8.530;2023-06-19T08:17:16;5.40;;;4.47;;
5801;SDS011;2927;49.366;8.530;2023-06-19T08:19:42;5.23;;;4.73;;
5801;SDS011;2927;49.366;8.530;2023-06-19T08:22:08;6.10;;;5.50;;
5801;SDS011;2927;49.366;8.530;2023-06-19T08:24:34;8.53;;;4.50;;
5801;SDS011;2927;49.366;8.530;2023-06-19T08:27:01;4.67;;;4.37;;
5801;SDS011;2927;49.366;8.530;2023-06-19T08:29:27;9.20;;;5.37;;
5801;SDS011;2927;49.366;8.530;2023-06-19T08:31:53;4.93;;;4.32;;
5801;SDS011;2927;49.366;8.530;2023-06-19T08:34:18;5.15;;;4.15;;
5801;SDS011;2927;49.366;8.530;2023-06-19T08:36:44;4.90;;;4.60;;
5801;SDS011;2927;49.366;8.530;2023-06-19T08:39:09;4.40;;;4.13;;
5801;SDS011;2927;49.366;8.530;2023-06-19T08:41:38;5.80;;;5.30;;
5801;SDS011;2927;49.366;8.530;2023-06-19T08:44:06;7.07;;;5.10;;
5801;SDS011;2927;49.366;8.530;2023-06-19T08:46:32;4.97;;;4.57;;
5801;SDS011;2927;49.366;8.530;2023-06-19T08:48:59;5.07;;;4.68;;
5801;SDS011;2927;49.366;8.530;2023-06-19T08:51:26;5.68;;;5.18;;
5801;SDS011;2927;49.366;8.530;2023-06-19T08:54:01;5.20;;;4.80;;
5801;SDS011;2927;49.366;8.530;2023-06-19T08:56:29;5.00;;;4.70;;
5801;SDS011;2927;49.366;8.530;2023-06-19T08:59:12;4.70;;;4.30;;
5801;SDS011;2927;49.366;8.530;2023-06-19T09:01:38;4.47;;;4.07;;
5801;SDS011;2927;49.366;8.530;2023-06-19T09:04:11;5.57;;;5.07;;
5801;SDS011;2927;49.366;8.530;2023-06-19T09:06:51;6.20;;;5.05;;
5801;SDS011;2927;49.366;8.530;2023-06-19T09:09:23;9.55;;;5.30;;
5801;SDS011;2927;49.366;8.530;2023-06-19T09:12:05;8.68;;;4.57;;
5801;SDS011;2927;49.366;8.530;2023-06-19T09:14:40;4.75;;;4.35;;
5801;SDS011;2927;49.366;8.530;2023-06-19T09:17:11;5.88;;;4.75;;
5801;SDS011;2927;49.366;8.530;2023-06-19T09:19:51;5.70;;;4.55;;
5801;SDS011;2927;49.366;8.530;2023-06-19T09:22:18;4.65;;;4.30;;
5801;SDS011;2927;49.366;8.530;2023-06-19T09:24:47;4.88;;;4.57;;
5801;SDS011;2927;49.366;8.530;2023-06-19T09:27:14;4.43;;;4.13;;
5801;SDS011;2927;49.366;8.530;2023-06-19T09:29:47;5.15;;;4.80;;
5801;SDS011;2927;49.366;8.530;2023-06-19T09:34:40;5.22;;;4.82;;
5801;SDS011;2927;49.366;8.530;2023-06-19T09:37:06;4.57;;;4.28;;
5801;SDS011;2927;49.366;8.530;2023-06-19T09:39:32;5.47;;;4.25;;
5801;SDS011;2927;49.366;8.530;2023-06-19T09:42:01;6.07;;;4.80;;
5801;SDS011;2927;49.366;8.530;2023-06-19T09:44:28;4.93;;;4.57;;
5801;SDS011;2927;49.366;8.530;2023-06-19T09:46:56;4.18;;;3.92;;
5801;SDS011;2927;49.366;8.530;2023-06-19T09:49:24;4.60;;;4.20;;
5801;SDS011;2927;49.366;8.530;2023-06-19T09:51:53;4.88;;;4.18;;
5801;SDS011;2927;49.366;8.530;2023-06-19T09:54:19;5.28;;;4.88;;
5801;SDS011;2927;49.366;8.530;2023-06-19T09:56:46;4.90;;;4.60;;
5801;SDS011;2927;49.366;8.530;2023-06-19T09:59:16;4.82;;;4.55;;
5801;SDS011;2927;49.366;8.530;2023-06-19T10:01:43;5.03;;;4.68;;
5801;SDS011;2927;49.366;8.530;2023-06-19T10:04:10;5.43;;;5.10;;
5801;SDS011;2927;49.366;8.530;2023-06-19T10:06:45;5.07;;;4.70;;
5801;SDS011;2927;49.366;8.530;2023-06-19T10:09:11;4.22;;;4.03;;
5801;SDS011;2927;49.366;8.530;2023-06-19T10:14:11;4.47;;;4.20;;
5801;SDS011;2927;49.366;8.530;2023-06-19T10:16:37;6.50;;;4.28;;
5801;SDS011;2927;49.366;8.530;2023-06-19T10:19:11;4.93;;;4.72;;
5801;SDS011;2927;49.366;8.530;2023-06-19T10:21:49;9.05;;;4.53;;
5801;SDS011;2927;49.366;8.530;2023-06-19T10:24:17;8.18;;;4.88;;
5801;SDS011;2927;49.366;8.530;2023-06-19T10:26:54;5.20;;;4.78;;
5801;SDS011;2927;49.366;8.530;2023-06-19T10:29:24;4.57;;;4.32;;
5801;SDS011;2927;49.366;8.530;2023-06-19T10:31:51;5.35;;;4.80;;
5801;SDS011;2927;49.366;8.530;2023-06-19T10:34:16;5.40;;;4.30;;
5801;SDS011;2927;49.366;8.530;2023-06-19T10:36:42;6.45;;;5.30;;
5801;SDS011;2927;49.366;8.530;2023-06-19T10:39:07;5.20;;;4.90;;
5801;SDS011;2927;49.366;8.530;2023-06-19T10:41:34;5.28;;;4.88;;
5801;SDS011;2927;49.366;8.530;2023-06-19T10:44:03;4.82;;;4.35;;
5801;SDS011;2927;49.366;8.530;2023-06-19T10:46:39;4.70;;;4.40;;
5801;SDS011;2927;49.366;8.530;2023-06-19T10:49:06;5.35;;;4.95;;
5801;SDS011;2927;49.366;8.530;2023-06-19T10:51:35;5.35;;;4.95;;
5801;SDS011;2927;49.366;8.530;2023-06-19T10:54:02;4.90;;;4.60;;
5801;SDS011;2927;49.366;8.530;2023-06-19T10:56:28;4.70;;;4.40;;
5801;SDS011;2927;49.366;8.530;2023-06-19T10:59:01;4.40;;;4.00;;
5801;SDS011;2927;49.366;8.530;2023-06-19T11:01:40;4.57;;;4.22;;
5801;SDS011;2927;49.366;8.530;2023-06-19T11:04:08;4.72;;;4.43;;
5801;SDS011;2927;49.366;8.530;2023-06-19T11:06:36;4.97;;;4.55;;
5801;SDS011;2927;49.366;8.530;2023-06-19T11:09:03;4.28;;;3.90;;
5801;SDS011;2927;49.366;8.530;2023-06-19T11:11:39;7.00;;;4.50;;
5801;SDS011;2927;49.366;8.530;2023-06-19T11:14:06;6.20;;;4.35;;
5801;SDS011;2927;49.366;8.530;2023-06-19T11:16:33;4.55;;;4.25;;
5801;SDS011;2927;49.366;8.530;2023-06-19T11:19:00;5.22;;;4.72;;
5801;SDS011;2927;49.366;8.530;2023-06-19T11:21:32;4.28;;;4.07;;
5801;SDS011;2927;49.366;8.530;2023-06-19T11:24:03;4.45;;;4.00;;
5801;SDS011;2927;49.366;8.530;2023-06-19T11:26:34;5.82;;;4.10;;
5801;SDS011;2927;49.366;8.530;2023-06-19T11:29:12;4.50;;;4.30;;
5801;SDS011;2927;49.366;8.530;2023-06-19T11:31:39;4.38;;;4.03;;
5801;SDS011;2927;49.366;8.530;2023-06-19T11:34:04;4.05;;;3.75;;
5801;SDS011;2927;49.366;8.530;2023-06-19T11:36:30;4.97;;;4.57;;
5801;SDS011;2927;49.366;8.530;2023-06-19T11:38:56;4.70;;;4.40;;
5801;SDS011;2927;49.366;8.530;2023-06-19T11:41:28;3.78;;;3.55;;
5801;SDS011;2927;49.366;8.530;2023-06-19T11:44:03;4.18;;;3.92;;
5801;SDS011;2927;49.366;8.530;2023-06-19T11:46:29;6.10;;;4.43;;
5801;SDS011;2927;49.366;8.530;2023-06-19T11:49:06;5.35;;;4.15;;
5801;SDS011;2927;49.366;8.530;2023-06-19T11:51:39;4.38;;;3.97;;
5801;SDS011;2927;49.366;8.530;2023-06-19T11:54:06;4.55;;;4.13;;
5801;SDS011;2927;49.366;8.530;2023-06-19T11:56:33;3.85;;;3.65;;
5801;SDS011;2927;49.366;8.530;2023-06-19T11:59:00;4.32;;;4.03;;
5801;SDS011;2927;49.366;8.530;2023-06-19T12:01:26;3.95;;;3.78;;
5801;SDS011;2927;49.366;8.530;2023-06-19T12:03:52;5.22;;;4.55;;
5801;SDS011;2927;49.366;8.530;2023-06-19T12:06:18;3.90;;;3.60;;
5801;SDS011;2927;49.366;8.530;2023-06-19T12:08:43;4.45;;;4.15;;
5801;SDS011;2927;49.366;8.530;2023-06-19T12:11:10;10.32;;;3.90;;
5801;SDS011;2927;49.366;8.530;2023-06-19T12:13:38;4.28;;;4.00;;
5801;SDS011;2927;49.366;8.530;2023-06-19T12:16:05;4.70;;;4.30;;
5801;SDS011;2927;49.366;8.530;2023-06-19T12:18:30;4.13;;;3.92;;
5801;SDS011;2927;49.366;8.530;2023-06-19T12:20:57;8.77;;;4.03;;
5801;SDS011;2927;49.366;8.530;2023-06-19T12:23:23;4.95;;;4.22;;
5801;SDS011;2927;49.366;8.530;2023-06-19T12:25:48;4.15;;;3.85;;
5801;SDS011;2927;49.366;8.530;2023-06-19T12:28:14;5.18;;;4.15;;
5801;SDS011;2927;49.366;8.530;2023-06-19T12:30:44;4.55;;;3.63;;
5801;SDS011;2927;49.366;8.530;2023-06-19T12:33:10;4.93;;;4.45;;
5801;SDS011;2927;49.366;8.530;2023-06-19T12:35:39;4.68;;;4.28;;
5801;SDS011;2927;49.366;8.530;2023-06-19T12:38:06;4.18;;;3.92;;
5801;SDS011;2927;49.366;8.530;2023-06-19T12:40:32;4.15;;;3.95;;
5801;SDS011;2927;49.366;8.530;2023-06-19T12:42:57;4.13;;;3.58;;
5801;SDS011;2927;49.366;8.530;2023-06-19T12:45:23;3.83;;;3.63;;
5801;SDS011;2927;49.366;8.530;2023-06-19T12:47:49;3.58;;;3.45;;
5801;SDS011;2927;49.366;8.530;2023-06-19T12:50:15;4.10;;;3.85;;
5801;SDS011;2927;49.366;8.530;2023-06-19T12:52:41;4.57;;;4.18;;
5801;SDS011;2927;49.366;8.530;2023-06-19T12:55:06;4.93;;;4.57;;
5801;SDS011;2927;49.366;8.530;2023-06-19T12:57:32;4.75;;;3.85;;
5801;SDS011;2927;49.366;8.530;2023-06-19T12:59:59;5.00;;;4.70;;
5801;SDS011;2927;49.366;8.530;2023-06-19T13:02:24;4.13;;;3.72;;
5801;SDS011;2927;49.366;8.530;2023-06-19T13:04:51;4.10;;;3.80;;
5801;SDS011;2927;49.366;8.530;2023-06-19T13:07:17;4.30;;;3.92;;
5801;SDS011;2927;49.366;8.530;2023-06-19T13:09:43;4.68;;;4.38;;
5801;SDS011;2927;49.366;8.530;2023-06-19T13:12:08;4.80;;;4.40;;
5801;SDS011;2927;49.366;8.530;2023-06-19T13:14:34;4.68;;;4.28;;
5801;SDS011;2927;49.366;8.530;2023-06-19T13:17:00;4.18;;;3.88;;
5801;SDS011;2927;49.366;8.530;2023-06-19T13:19:25;6.35;;;4.85;;
5801;SDS011;2927;49.366;8.530;2023-06-19T13:21:51;3.90;;;3.70;;
5801;SDS011;2927;49.366;8.530;2023-06-19T13:24:17;3.83;;;3.53;;
5801;SDS011;2927;49.366;8.530;2023-06-19T13:26:43;5.00;;;4.70;;
5801;SDS011;2927;49.366;8.530;2023-06-19T13:29:11;4.00;;;3.80;;
5801;SDS011;2927;49.366;8.530;2023-06-19T13:31:37;4.07;;;3.88;;
5801;SDS011;2927;49.366;8.530;2023-06-19T13:34:02;4.45;;;4.05;;
5801;SDS011;2927;49.366;8.530;2023-06-19T13:36:28;3.75;;;3.15;;
5801;SDS011;2927;49.366;8.530;2023-06-19T13:38:54;3.47;;;3.13;;
5801;SDS011;2927;49.366;8.530;2023-06-19T13:41:20;4.50;;;3.97;;
5801;SDS011;2927;49.366;8.530;2023-06-19T13:43:48;4.20;;;3.90;;
5801;SDS011;2927;49.366;8.530;2023-06-19T13:46:14;4.05;;;3.75;;
5801;SDS011;2927;49.366;8.530;2023-06-19T13:48:40;4.03;;;3.72;;
5801;SDS011;2927;49.366;8.530;2023-06-19T13:51:05;4.47;;;4.18;;
5801;SDS011;2927;49.366;8.530;2023-06-19T13:53:31;4.20;;;3.83;;
5801;SDS011;2927;49.366;8.530;2023-06-19T13:55:57;3.83;;;3.63;;
5801;SDS011;2927;49.366;8.530;2023-06-19T13:58:22;6.80;;;4.15;;
5801;SDS011;2927;49.366;8.530;2023-06-19T14:00:48;9.02;;;4.60;;
5801;SDS011;2927;49.366;8.530;2023-06-19T14:03:14;3.85;;;3.55;;
5801;SDS011;2927;49.366;8.530;2023-06-19T14:05:39;4.43;;;4.13;;
5801;SDS011;2927;49.366;8.530;2023-06-19T14:08:05;6.43;;;4.35;;
5801;SDS011;2927;49.366;8.530;2023-06-19T14:10:30;4.35;;;4.13;;
5801;SDS011;2927;49.366;8.530;2023-06-19T14:12:56;4.50;;;4.07;;
5801;SDS011;2927;49.366;8.530;2023-06-19T14:15:22;4.13;;;3.90;;
5801;SDS011;2927;49.366;8.530;2023-06-19T14:17:47;3.30;;;3.10;;
5801;SDS011;2927;49.366;8.530;2023-06-19T14:20:13;4.22;;;3.92;;
5801;SDS011;2927;49.366;8.530;2023-06-19T14:22:38;4.70;;;3.60;;
5801;SDS011;2927;49.366;8.530;2023-06-19T14:25:04;4.60;;;3.50;;
5801;SDS011;2927;49.366;8.530;2023-06-19T14:27:30;4.13;;;3.90;;
5801;SDS011;2927;49.366;8.530;2023-06-19T14:29:56;4.22;;;3.90;;
5801;SDS011;2927;49.366;8.530;2023-06-19T14:32:22;4.35;;;3.95;;
5801;SDS011;2927;49.366;8.530;2023-06-19T14:34:52;6.05;;;4.68;;
5801;SDS011;2927;49.366;8.530;2023-06-19T14:37:17;4.38;;;3.78;;
5801;SDS011;2927;49.366;8.530;2023-06-19T14:39:43;4.68;;;4.28;;
5801;SDS011;2927;49.366;8.530;2023-06-19T14:42:09;4.03;;;3.83;;
5801;SDS011;2927;49.366;8.530;2023-06-19T14:44:35;5.95;;;3.95;;
5801;SDS011;2927;49.366;8.530;2023-06-19T14:47:01;9.00;;;4.78;;
5801;SDS011;2927;49.366;8.530;2023-06-19T14:49:27;4.13;;;3.80;;
5801;SDS011;2927;49.366;8.530;2023-06-19T14:51:53;4.60;;;4.18;;
5801;SDS011;2927;49.366;8.530;2023-06-19T14:54:21;4.30;;;4.00;;
5801;SDS011;2927;49.366;8.530;2023-06-19T14:56:47;7.22;;;4.53;;
5801;SDS011;2927;49.366;8.530;2023-06-19T14:59:15;5.20;;;4.70;;
5801;SDS011;2927;49.366;8.530;2023-06-19T15:01:40;5.28;;;4.57;;
5801;SDS011;2927;49.366;8.530;2023-06-19T15:04:07;4.80;;;4.13;;
5801;SDS011;2927;49.366;8.530;2023-06-19T15:06:33;4.60;;;4.30;;
5801;SDS011;2927;49.366;8.530;2023-06-19T15:08:58;4.30;;;3.90;;
5801;SDS011;2927;49.366;8.530;2023-06-19T15:11:24;4.47;;;4.18;;
5801;SDS011;2927;49.366;8.530;2023-06-19T15:13:49;5.28;;;4.78;;
5801;SDS011;2927;49.366;8.530;2023-06-19T15:16:15;4.80;;;4.40;;